createdAt,value
2022-10-17T00:00:15.091Z,9.278264
2022-10-17T00:01:15.164Z,9.278402
2022-10-17T00:02:15.068Z,9.278331
2022-10-17T00:03:15.046Z,9.278262
2022-10-17T00:04:15.027Z,9.278347
2022-10-17T00:05:15.020Z,9.278312
2022-10-17T00:06:15.021Z,9.278341
2022-10-17T00:07:14.983Z,9.278468
2022-10-17T00:08:14.971Z,9.278358
2022-10-17T00:09:14.953Z,9.278280
2022-10-17T00:10:14.929Z,9.278255
2022-10-17T00:11:15.949Z,9.278336
2022-10-17T00:12:14.897Z,9.278438
2022-10-17T00:13:14.872Z,9.278346
2022-10-17T00:14:14.864Z,9.278382
2022-10-17T00:15:14.833Z,9.278296
2022-10-17T00:16:14.868Z,9.278300
2022-10-17T00:17:14.824Z,9.278339
2022-10-17T00:18:14.790Z,9.278362
2022-10-17T00:19:14.788Z,9.278346
2022-10-17T00:20:14.755Z,9.278256
2022-10-17T00:21:14.774Z,9.278283
2022-10-17T00:22:14.735Z,9.278296
2022-10-17T00:23:14.711Z,9.278336
2022-10-17T00:24:14.711Z,9.278345
2022-10-17T00:25:14.683Z,9.278319
2022-10-17T00:26:14.701Z,9.278404
2022-10-17T00:27:14.646Z,9.278293
2022-10-17T00:28:14.629Z,9.278276
2022-10-17T00:29:14.610Z,9.278305
2022-10-17T00:30:14.596Z,9.278260
2022-10-17T00:31:14.616Z,9.278320
2022-10-17T00:32:14.574Z,9.278211
2022-10-17T00:33:14.540Z,9.278231
2022-10-17T00:34:14.536Z,9.278284
2022-10-17T00:35:14.507Z,9.278388
2022-10-17T00:36:14.523Z,9.278406
2022-10-17T00:37:14.488Z,9.278311
2022-10-17T00:38:14.475Z,9.278409
2022-10-17T00:39:14.437Z,9.278350
2022-10-17T00:40:14.425Z,9.278270
2022-10-17T00:41:14.428Z,9.278266
2022-10-17T00:42:15.408Z,9.278294
2022-10-17T00:43:14.389Z,9.278316
2022-10-17T00:44:14.356Z,9.278395
2022-10-17T00:45:14.349Z,9.278316
2022-10-17T00:46:14.372Z,9.278300
2022-10-17T00:47:14.312Z,9.278340
2022-10-17T00:48:14.288Z,9.278366
2022-10-17T00:49:14.275Z,9.278405
2022-10-17T00:50:14.261Z,9.278335
2022-10-17T00:51:14.266Z,9.278297
2022-10-17T00:52:14.235Z,9.278275
2022-10-17T00:53:14.208Z,9.278245
2022-10-17T00:54:14.197Z,9.278143
2022-10-17T00:55:14.175Z,9.278200
2022-10-17T00:56:14.181Z,9.278419
2022-10-17T00:57:14.142Z,9.278345
2022-10-17T00:58:14.121Z,9.278318
2022-10-17T00:59:14.103Z,9.278270
2022-10-17T01:00:14.100Z,9.278218
2022-10-17T01:01:14.138Z,9.278150
2022-10-17T01:02:14.056Z,9.278224
2022-10-17T01:03:14.040Z,9.278159
2022-10-17T01:04:14.022Z,9.278192
2022-10-17T01:05:14.015Z,9.278269
2022-10-17T01:06:14.011Z,9.278313
2022-10-17T01:07:13.974Z,9.278287
2022-10-17T01:08:13.944Z,9.278224
2022-10-17T01:09:13.942Z,9.278202
2022-10-17T01:10:13.963Z,9.278247
2022-10-17T01:11:13.929Z,9.278339
2022-10-17T01:12:13.883Z,9.278267
2022-10-17T01:13:13.871Z,9.278223
2022-10-17T01:14:13.852Z,9.278270
2022-10-17T01:15:13.846Z,9.278160
2022-10-17T01:16:13.848Z,9.278143
2022-10-17T01:17:13.799Z,9.278162
2022-10-17T01:18:13.780Z,9.278357
2022-10-17T01:19:13.782Z,9.278270
2022-10-17T01:20:13.754Z,9.278371
2022-10-17T01:21:13.775Z,9.278273
2022-10-17T01:22:13.722Z,9.278237
2022-10-17T01:23:13.695Z,9.278172
2022-10-17T01:24:13.693Z,9.278278
2022-10-17T01:25:13.660Z,9.278259
2022-10-17T01:26:13.684Z,9.278277
2022-10-17T01:27:13.626Z,9.278376
2022-10-17T01:28:13.621Z,9.278423
2022-10-17T01:29:13.598Z,9.278351
2022-10-17T01:30:13.582Z,9.278356
2022-10-17T01:31:13.604Z,9.278316
2022-10-17T01:32:13.556Z,9.278301
2022-10-17T01:33:13.530Z,9.278274
2022-10-17T01:34:13.512Z,9.278215
2022-10-17T01:35:13.511Z,9.278261
2022-10-17T01:36:13.484Z,9.278337
2022-10-17T01:37:13.493Z,9.278311
2022-10-17T01:38:13.454Z,9.278269
2022-10-17T01:39:13.444Z,9.278270
2022-10-17T01:40:13.428Z,9.278364
2022-10-17T01:41:13.403Z,9.278425
2022-10-17T01:42:13.413Z,9.278353
2022-10-17T01:43:13.370Z,9.278240
2022-10-17T01:44:13.352Z,9.278307
2022-10-17T01:45:13.335Z,9.278334
2022-10-17T01:46:13.332Z,9.278308
2022-10-17T01:47:13.341Z,9.278274
2022-10-17T01:48:13.297Z,9.278180
2022-10-17T01:49:13.270Z,9.278235
2022-10-17T01:50:13.260Z,9.278300
2022-10-17T01:51:13.247Z,9.278292
2022-10-17T01:52:13.249Z,9.278283
2022-10-17T01:53:13.200Z,9.278374
2022-10-17T01:54:13.185Z,9.278400
2022-10-17T01:55:13.166Z,9.278325
2022-10-17T01:56:13.170Z,9.278323
2022-10-17T01:57:13.161Z,9.278376
2022-10-17T01:58:13.116Z,9.278331
2022-10-17T01:59:13.118Z,9.278264
2022-10-17T02:00:13.094Z,9.278275
2022-10-17T02:01:13.122Z,9.278290
2022-10-17T02:02:13.087Z,9.278316
2022-10-17T02:03:13.042Z,9.278316
2022-10-17T02:04:13.093Z,9.278327
2022-10-17T02:05:13.007Z,9.278363
2022-10-17T02:06:12.980Z,9.278331
2022-10-17T02:07:13.024Z,9.278323
2022-10-17T02:08:12.948Z,9.278360
2022-10-17T02:09:12.931Z,9.278306
2022-10-17T02:10:12.918Z,9.278309
2022-10-17T02:11:12.902Z,9.278387
2022-10-17T02:12:12.925Z,9.278308
2022-10-17T02:13:12.873Z,9.278277
2022-10-17T02:15:13.849Z,9.278291
2022-10-17T02:16:12.825Z,9.278282
2022-10-17T02:17:12.838Z,9.278521
2022-10-17T02:18:12.797Z,9.278493
2022-10-17T02:19:12.770Z,9.278349
2022-10-17T02:20:12.762Z,9.278365
2022-10-17T02:21:12.754Z,9.278450
2022-10-17T02:22:12.768Z,9.278403
2022-10-17T02:23:12.760Z,9.278370
2022-10-17T02:24:12.690Z,9.278420
2022-10-17T02:25:12.688Z,9.278328
2022-10-17T02:26:12.662Z,9.278202
2022-10-17T02:27:12.668Z,9.278275
2022-10-17T02:28:12.637Z,9.278168
2022-10-17T02:29:12.620Z,9.278290
2022-10-17T02:30:12.592Z,9.278406
2022-10-17T02:31:12.585Z,9.278296
2022-10-17T02:32:12.651Z,9.278318
2022-10-17T02:33:13.593Z,9.278322
2022-10-17T02:34:12.519Z,9.278279
2022-10-17T02:35:12.504Z,9.278302
2022-10-17T02:36:12.499Z,9.278346
2022-10-17T02:37:12.516Z,9.278248
2022-10-17T02:38:12.460Z,9.278296
2022-10-17T02:39:12.468Z,9.278261
2022-10-17T02:40:12.432Z,9.278289
2022-10-17T02:41:12.412Z,9.278354
2022-10-17T02:42:12.419Z,9.278172
2022-10-17T02:43:12.378Z,9.278240
2022-10-17T02:44:12.361Z,9.278345
2022-10-17T02:45:12.342Z,9.278413
2022-10-17T02:46:12.327Z,9.278302
2022-10-17T02:47:12.346Z,9.278347
2022-10-17T02:48:12.288Z,9.278390
2022-10-17T02:49:12.286Z,9.278512
2022-10-17T02:50:12.260Z,9.278284
2022-10-17T02:51:12.258Z,9.278220
2022-10-17T02:52:12.259Z,9.278155
2022-10-17T02:53:12.213Z,9.278297
2022-10-17T02:54:12.182Z,9.278201
2022-10-17T02:55:12.185Z,9.278293
2022-10-17T02:56:12.188Z,9.278281
2022-10-17T02:57:12.142Z,9.278356
2022-10-17T02:58:12.119Z,9.278265
2022-10-17T02:59:12.106Z,9.278290
2022-10-17T03:00:12.080Z,9.278366
2022-10-17T03:01:12.130Z,9.278286
2022-10-17T03:02:12.049Z,9.278237
2022-10-17T03:03:12.037Z,9.278070
2022-10-17T03:04:12.018Z,9.278251
2022-10-17T03:05:11.998Z,9.278144
2022-10-17T03:06:11.990Z,9.278262
2022-10-17T03:07:12.012Z,9.278305
2022-10-17T03:08:11.956Z,9.278304
2022-10-17T03:09:11.931Z,9.278304
2022-10-17T03:10:11.919Z,9.278361
2022-10-17T03:11:11.890Z,9.278315
2022-10-17T03:12:11.912Z,9.278310
2022-10-17T03:13:11.875Z,9.278369
2022-10-17T03:14:11.870Z,9.278344
2022-10-17T03:15:11.838Z,9.278229
2022-10-17T03:16:11.840Z,9.278340
2022-10-17T03:17:39.535Z,9.278429
2022-10-17T03:18:11.790Z,9.278428
2022-10-17T03:19:12.069Z,9.278373
2022-10-17T03:20:11.762Z,9.278342
2022-10-17T03:21:11.771Z,9.278250
2022-10-17T03:22:11.914Z,9.278352
2022-10-17T03:23:11.759Z,9.278234
2022-10-17T03:24:11.714Z,9.278192
2022-10-17T03:25:11.682Z,9.278311
2022-10-17T03:26:11.681Z,9.278295
2022-10-17T03:27:11.710Z,9.278324
2022-10-17T03:28:11.660Z,9.278295
2022-10-17T03:29:11.675Z,9.278356
2022-10-17T03:30:11.620Z,9.278308
2022-10-17T03:31:11.605Z,9.278374
2022-10-17T03:32:11.594Z,9.278299
2022-10-17T03:33:11.609Z,9.278327
2022-10-17T03:34:11.530Z,9.278377
2022-10-17T03:35:14.765Z,9.278350
2022-10-17T03:36:12.545Z,9.278363
2022-10-17T03:37:11.531Z,9.278361
2022-10-17T03:38:11.469Z,9.278330
2022-10-17T03:39:11.446Z,9.278312
2022-10-17T03:40:11.438Z,9.278327
2022-10-17T03:41:11.429Z,9.278298
2022-10-17T03:42:11.452Z,9.278284
2022-10-17T03:43:11.386Z,9.278292
2022-10-17T03:44:11.383Z,9.278257
2022-10-17T03:45:11.339Z,9.278292
2022-10-17T03:46:11.393Z,9.278272
2022-10-17T03:47:14.064Z,9.278324
2022-10-17T03:48:11.309Z,9.278384
2022-10-17T03:49:11.302Z,9.278263
2022-10-17T03:50:12.249Z,9.278240
2022-10-17T03:51:11.280Z,9.278288
2022-10-17T03:52:11.304Z,9.278309
2022-10-17T03:53:11.216Z,9.278302
2022-10-17T03:54:12.226Z,9.278384
2022-10-17T03:55:11.230Z,9.278379
2022-10-17T03:56:11.160Z,9.278419
2022-10-17T03:57:11.201Z,9.278343
2022-10-17T03:58:11.113Z,9.278348
2022-10-17T03:59:11.132Z,9.278333
2022-10-17T04:00:11.129Z,9.278342
2022-10-17T04:01:11.197Z,9.278223
2022-10-17T04:02:11.094Z,9.278279
2022-10-17T04:03:14.940Z,9.278239
2022-10-17T04:04:12.041Z,9.278227
2022-10-17T04:05:10.993Z,9.278277
2022-10-17T04:06:11.004Z,9.278313
2022-10-17T04:07:11.057Z,9.278137
2022-10-17T04:08:10.975Z,9.278228
2022-10-17T04:09:10.942Z,9.278342
2022-10-17T04:10:10.969Z,9.278314
2022-10-17T04:11:10.917Z,9.278261
2022-10-17T04:12:10.913Z,9.278337
2022-10-17T04:13:10.894Z,9.278428
2022-10-17T04:14:10.866Z,9.278308
2022-10-17T04:15:10.846Z,9.278259
2022-10-17T04:16:10.833Z,9.278295
2022-10-17T04:17:10.841Z,9.278203
2022-10-17T04:18:10.825Z,9.278301
2022-10-17T04:19:10.770Z,9.278322
2022-10-17T04:20:10.745Z,9.278336
2022-10-17T04:21:10.780Z,9.278284
2022-10-17T04:22:10.757Z,9.278199
2022-10-17T04:23:10.708Z,9.278234
2022-10-17T04:24:10.723Z,9.278152
2022-10-17T04:25:10.677Z,9.278096
2022-10-17T04:26:10.671Z,9.278106
2022-10-17T04:27:10.728Z,9.278165
2022-10-17T04:28:10.641Z,9.278052
2022-10-17T04:29:10.613Z,9.278249
2022-10-17T04:30:10.581Z,9.278306
2022-10-17T04:31:10.573Z,9.278308
2022-10-17T04:32:10.598Z,9.278142
2022-10-17T04:33:10.539Z,9.278139
2022-10-17T04:34:10.549Z,9.278030
2022-10-17T04:35:10.522Z,9.278219
2022-10-17T04:36:11.481Z,9.278197
2022-10-17T04:37:10.501Z,9.278140
2022-10-17T04:38:10.461Z,9.278175
2022-10-17T04:39:10.477Z,9.278182
2022-10-17T04:40:10.432Z,9.278306
2022-10-17T04:41:10.401Z,9.278262
2022-10-17T04:42:10.428Z,9.278213
2022-10-17T04:43:10.402Z,9.278294
2022-10-17T04:44:10.333Z,9.278197
2022-10-17T04:45:10.357Z,9.278218
2022-10-17T04:46:10.348Z,9.278142
2022-10-17T04:47:10.355Z,9.278213
2022-10-17T04:48:10.295Z,9.278152
2022-10-17T04:49:10.265Z,9.278159
2022-10-17T04:50:10.292Z,9.278147
2022-10-17T04:51:10.242Z,9.278096
2022-10-17T04:52:10.245Z,9.278152
2022-10-17T04:53:10.194Z,9.278149
2022-10-17T04:54:10.185Z,9.278131
2022-10-17T04:55:10.158Z,9.278173
2022-10-17T04:56:10.179Z,9.278241
2022-10-17T04:57:10.156Z,9.278184
2022-10-17T04:58:10.102Z,9.278134
2022-10-17T04:59:10.092Z,9.278109
2022-10-17T05:01:10.101Z,9.278021
2022-10-17T05:02:10.079Z,9.278297
2022-10-17T05:03:10.019Z,9.278272
2022-10-17T05:04:10.031Z,9.278239
2022-10-17T05:05:09.988Z,9.278433
2022-10-17T05:06:09.978Z,9.278383
2022-10-17T05:07:10.023Z,9.278440
2022-10-17T05:08:09.961Z,9.278355
2022-10-17T05:09:09.910Z,9.278288
2022-10-17T05:10:09.899Z,9.278383
2022-10-17T05:11:09.883Z,9.278419
2022-10-17T05:12:10.490Z,9.278395
2022-10-17T05:13:09.882Z,9.278453
2022-10-17T05:14:09.844Z,9.278342
2022-10-17T05:15:09.838Z,9.278370
2022-10-17T05:16:09.831Z,9.278373
2022-10-17T05:17:09.813Z,9.278431
2022-10-17T05:18:09.764Z,9.278530
2022-10-17T05:19:09.765Z,9.278494
2022-10-17T05:20:09.733Z,9.278414
2022-10-17T05:21:09.697Z,9.278441
2022-10-17T05:22:09.720Z,9.278380
2022-10-17T05:23:10.718Z,9.278275
2022-10-17T05:24:09.655Z,9.278157
2022-10-17T05:25:09.669Z,9.277960
2022-10-17T05:26:09.660Z,9.278073
2022-10-17T05:27:09.674Z,9.278234
2022-10-17T05:28:09.596Z,9.278302
2022-10-17T05:29:09.649Z,9.278237
2022-10-17T05:30:09.557Z,9.278265
2022-10-17T05:31:09.546Z,9.278264
2022-10-17T05:32:09.560Z,9.278324
2022-10-17T05:33:09.540Z,9.278326
2022-10-17T05:34:11.632Z,9.278316
2022-10-17T05:35:09.485Z,9.278314
2022-10-17T05:36:09.505Z,9.278336
2022-10-17T05:37:09.486Z,9.278428
2022-10-17T05:38:09.473Z,9.278365
2022-10-17T05:39:09.426Z,9.278348
2022-10-17T05:40:09.418Z,9.278376
2022-10-17T05:41:09.367Z,9.278363
2022-10-17T05:42:09.404Z,9.278318
2022-10-17T05:43:09.421Z,9.278372
2022-10-17T05:44:09.375Z,9.278322
2022-10-17T05:45:09.331Z,9.278282
2022-10-17T05:46:09.369Z,9.278331
2022-10-17T05:47:09.327Z,9.278366
2022-10-17T05:48:09.310Z,9.278371
2022-10-17T05:49:19.421Z,9.278482
2022-10-17T05:50:11.220Z,9.278554
2022-10-17T05:51:09.272Z,9.278282
2022-10-17T05:52:09.246Z,9.278346
2022-10-17T05:53:09.199Z,9.278414
2022-10-17T05:54:09.196Z,9.278385
2022-10-17T05:55:09.147Z,9.278414
2022-10-17T05:56:09.195Z,9.278467
2022-10-17T05:57:09.182Z,9.278404
2022-10-17T05:58:11.724Z,9.278371
2022-10-17T05:59:10.095Z,9.278340
2022-10-17T06:00:09.109Z,9.278357
2022-10-17T06:01:10.747Z,9.278325
2022-10-17T06:02:09.161Z,9.278380
2022-10-17T06:03:09.040Z,9.278402
2022-10-17T06:04:09.017Z,9.278375
2022-10-17T06:05:08.965Z,9.278354
2022-10-17T06:06:08.997Z,9.278459
2022-10-17T06:07:09.026Z,9.278421
2022-10-17T06:08:08.932Z,9.278421
2022-10-17T06:09:08.939Z,9.278392
2022-10-17T06:10:08.891Z,9.278419
2022-10-17T06:11:10.267Z,9.278485
2022-10-17T06:12:09.895Z,9.278462
2022-10-17T06:13:08.854Z,9.278442
2022-10-17T06:14:08.889Z,9.278493
2022-10-17T06:15:08.825Z,9.278472
2022-10-17T06:16:08.788Z,9.278404
2022-10-17T06:17:12.202Z,9.278388
2022-10-17T06:18:10.793Z,9.278359
2022-10-17T06:19:08.746Z,9.278402
2022-10-17T06:20:08.741Z,9.278460
2022-10-17T06:21:08.760Z,9.278591
2022-10-17T06:22:08.731Z,9.278522
2022-10-17T06:23:08.700Z,9.278445
2022-10-17T06:24:08.667Z,9.278552
2022-10-17T06:25:08.679Z,9.278142
2022-10-17T06:26:08.645Z,9.278346
2022-10-17T06:27:11.771Z,9.278392
2022-10-17T06:28:08.613Z,9.278330
2022-10-17T06:29:08.615Z,9.278327
2022-10-17T06:30:08.569Z,9.278257
2022-10-17T06:31:08.599Z,9.278282
2022-10-17T06:32:11.202Z,9.278304
2022-10-17T06:33:09.539Z,9.278269
2022-10-17T06:34:08.509Z,9.278399
2022-10-17T06:35:08.512Z,9.278422
2022-10-17T06:36:08.494Z,9.278464
2022-10-17T06:37:08.468Z,9.278510
2022-10-17T06:38:08.492Z,9.278446
2022-10-17T06:39:08.484Z,9.278464
2022-10-17T06:40:08.434Z,9.278502
2022-10-17T06:41:08.411Z,9.278487
2022-10-17T06:42:08.405Z,9.278476
2022-10-17T06:43:08.378Z,9.278487
2022-10-17T06:44:08.477Z,9.278577
2022-10-17T06:45:08.352Z,9.278609
2022-10-17T06:46:08.290Z,9.278550
2022-10-17T06:47:08.281Z,9.278477
2022-10-17T06:48:08.321Z,9.278352
2022-10-17T06:49:08.291Z,9.278465
2022-10-17T06:50:08.254Z,9.278406
2022-10-17T06:51:08.232Z,9.278370
2022-10-17T06:52:08.201Z,9.278378
2022-10-17T06:53:08.301Z,9.278378
2022-10-17T06:54:08.203Z,9.278328
2022-10-17T06:55:08.163Z,9.278419
2022-10-17T06:56:08.154Z,9.278425
2022-10-17T06:57:08.141Z,9.278409
2022-10-17T06:58:08.151Z,9.278475
2022-10-17T06:59:08.107Z,9.278321
2022-10-17T07:00:08.107Z,9.278301
2022-10-17T07:02:08.062Z,9.278418
2022-10-17T07:03:08.088Z,9.278257
2022-10-17T07:04:08.048Z,9.278433
2022-10-17T07:05:08.001Z,9.278433
2022-10-17T07:06:07.998Z,9.278416
2022-10-17T07:07:07.965Z,9.278480
2022-10-17T07:08:07.969Z,9.278589
2022-10-17T07:09:07.917Z,9.278528
2022-10-17T07:10:07.915Z,9.278439
2022-10-17T07:11:07.876Z,9.278404
2022-10-17T07:12:07.865Z,9.278302
2022-10-17T07:13:07.889Z,9.278380
2022-10-17T07:14:07.885Z,9.278391
2022-10-17T07:15:07.835Z,9.278295
2022-10-17T07:16:07.832Z,9.278287
2022-10-17T07:17:07.821Z,9.278284
2022-10-17T07:18:07.809Z,9.278178
2022-10-17T07:19:07.776Z,9.278283
2022-10-17T07:20:07.821Z,9.278317
2022-10-17T07:21:07.720Z,9.278245
2022-10-17T07:22:09.587Z,9.278337
2022-10-17T07:23:07.744Z,9.278405
2022-10-17T07:24:07.678Z,9.278341
2022-10-17T07:25:07.801Z,9.278324
2022-10-17T07:26:07.634Z,9.278319
2022-10-17T07:27:07.665Z,9.278333
2022-10-17T07:28:07.657Z,9.278423
2022-10-17T07:29:07.695Z,9.278399
2022-10-17T07:30:07.625Z,9.278332
2022-10-17T07:31:07.544Z,9.278339
2022-10-17T07:32:07.586Z,9.278409
2022-10-17T07:33:07.561Z,9.278383
2022-10-17T07:34:07.594Z,9.278385
2022-10-17T07:35:08.565Z,9.278417
2022-10-17T07:36:12.352Z,9.278399
2022-10-17T07:37:08.436Z,9.278375
2022-10-17T07:38:08.538Z,9.278310
2022-10-17T07:39:07.525Z,9.278308
2022-10-17T07:40:07.426Z,9.278325
2022-10-17T07:41:07.419Z,9.278352
2022-10-17T07:42:07.398Z,9.278365
2022-10-17T07:43:07.432Z,9.278234
2022-10-17T07:44:07.353Z,9.278215
2022-10-17T07:45:07.362Z,9.278172
2022-10-17T07:46:07.369Z,9.278224
2022-10-17T07:47:07.300Z,9.278252
2022-10-17T07:48:07.317Z,9.278289
2022-10-17T07:49:07.270Z,9.278254
2022-10-17T07:50:07.246Z,9.278327
2022-10-17T07:51:07.249Z,9.278356
2022-10-17T07:52:07.224Z,9.278337
2022-10-17T07:53:07.261Z,9.278318
2022-10-17T07:54:07.222Z,9.278356
2022-10-17T07:55:07.274Z,9.278374
2022-10-17T07:56:07.209Z,9.278345
2022-10-17T07:57:07.167Z,9.278340
2022-10-17T07:58:07.170Z,9.278344
2022-10-17T07:59:09.339Z,9.278345
2022-10-17T08:00:07.200Z,9.278374
2022-10-17T08:01:09.456Z,9.278335
2022-10-17T08:02:08.131Z,9.278349
2022-10-17T08:03:07.136Z,9.278311
2022-10-17T08:04:07.023Z,9.278278
2022-10-17T08:05:07.007Z,9.278342
2022-10-17T08:06:07.054Z,9.278383
2022-10-17T08:07:19.752Z,9.278308
2022-10-17T08:08:09.028Z,9.278328
2022-10-17T08:09:06.980Z,9.278283
2022-10-17T08:11:06.931Z,9.278211
2022-10-17T08:12:06.911Z,9.278314
2022-10-17T08:13:06.914Z,9.278174
2022-10-17T08:14:06.879Z,9.278324
2022-10-17T08:15:06.853Z,9.278323
2022-10-17T08:16:06.847Z,9.278407
2022-10-17T08:17:06.873Z,9.278350
2022-10-17T08:18:06.821Z,9.278356
2022-10-17T08:19:06.826Z,9.278241
2022-10-17T08:20:06.795Z,9.278126
2022-10-17T08:21:06.843Z,9.278139
2022-10-17T08:22:06.778Z,9.278197
2022-10-17T08:23:06.814Z,9.278252
2022-10-17T08:24:06.703Z,9.278214
2022-10-17T08:25:06.742Z,9.278351
2022-10-17T08:26:06.701Z,9.278371
2022-10-17T08:27:06.631Z,9.278440
2022-10-17T08:29:06.673Z,9.278294
2022-10-17T08:30:06.641Z,9.278316
2022-10-17T08:31:06.648Z,9.278316
2022-10-17T08:32:08.964Z,9.278263
2022-10-17T08:33:07.569Z,9.278331
2022-10-17T08:34:06.517Z,9.278276
2022-10-17T08:35:06.562Z,9.278313
2022-10-17T08:36:06.489Z,9.278229
2022-10-17T08:37:06.570Z,9.278212
2022-10-17T08:38:07.017Z,9.278248
2022-10-17T08:39:06.479Z,9.278262
2022-10-17T08:40:06.460Z,9.278310
2022-10-17T08:41:06.411Z,9.278314
2022-10-17T08:42:06.397Z,9.278245
2022-10-17T08:43:06.418Z,9.278347
2022-10-17T08:44:06.374Z,9.278316
2022-10-17T08:45:06.340Z,9.278375
2022-10-17T08:46:06.380Z,9.278314
2022-10-17T08:47:06.351Z,9.278320
2022-10-17T08:48:06.387Z,9.278307
2022-10-17T08:49:08.746Z,9.278230
2022-10-17T08:50:08.277Z,9.278271
2022-10-17T08:51:06.306Z,9.278288
2022-10-17T08:52:06.257Z,9.278315
2022-10-17T08:53:06.265Z,9.278347
2022-10-17T08:54:06.242Z,9.278231
2022-10-17T08:55:06.301Z,9.278095
2022-10-17T08:56:07.233Z,9.278021
2022-10-17T08:57:06.196Z,9.278091
2022-10-17T08:58:06.179Z,9.278150
2022-10-17T08:59:06.135Z,9.278452
2022-10-17T09:00:06.129Z,9.278655
2022-10-17T09:01:10.382Z,9.278487
2022-10-17T09:02:08.135Z,9.278412
2022-10-17T09:03:07.148Z,9.278404
2022-10-17T09:04:06.039Z,9.277978
2022-10-17T09:05:06.026Z,9.278283
2022-10-17T09:06:06.013Z,9.278550
2022-10-17T09:07:06.029Z,9.278339
2022-10-17T09:08:06.037Z,9.278333
2022-10-17T09:09:06.004Z,9.278337
2022-10-17T09:10:06.033Z,9.278349
2022-10-17T09:11:05.979Z,9.278408
2022-10-17T09:12:05.913Z,9.278330
2022-10-17T09:13:07.029Z,9.278306
2022-10-17T09:14:05.922Z,9.278236
2022-10-17T09:15:05.892Z,9.278299
2022-10-17T09:16:05.841Z,9.278180
2022-10-17T09:17:05.838Z,9.278172
2022-10-17T09:18:34.463Z,9.278241
2022-10-17T09:19:05.776Z,9.278255
2022-10-17T09:20:05.765Z,9.278351
2022-10-17T09:21:05.746Z,9.278333
2022-10-17T09:22:05.740Z,9.278258
2022-10-17T09:23:05.730Z,9.278357
2022-10-17T09:24:09.696Z,9.278368
2022-10-17T09:25:07.695Z,9.278254
2022-10-17T09:26:05.682Z,9.278272
2022-10-17T09:27:05.681Z,9.278484
2022-10-17T09:28:05.707Z,9.278493
2022-10-17T09:29:05.740Z,9.278267
2022-10-17T09:30:07.159Z,9.278167
2022-10-17T09:31:05.605Z,9.278251
2022-10-17T09:32:05.585Z,9.278285
2022-10-17T09:33:05.636Z,9.278221
2022-10-17T09:34:05.585Z,9.278132
2022-10-17T09:35:05.556Z,9.278358
2022-10-17T09:36:05.511Z,9.278243
2022-10-17T09:37:05.495Z,9.278258
2022-10-17T09:38:05.476Z,9.278190
2022-10-17T09:39:05.513Z,9.278260
2022-10-17T09:40:05.468Z,9.278294
2022-10-17T09:41:19.937Z,9.278369
2022-10-17T09:42:07.432Z,9.278395
2022-10-17T09:43:05.421Z,9.278346
2022-10-17T09:44:05.419Z,9.278319
2022-10-17T09:45:05.367Z,9.278338
2022-10-17T09:46:05.371Z,9.278316
2022-10-17T09:47:05.359Z,9.278316
2022-10-17T09:48:05.337Z,9.278374
2022-10-17T09:49:05.343Z,9.278263
2022-10-17T09:50:05.293Z,9.278365
2022-10-17T09:51:21.749Z,9.278323
2022-10-17T09:52:07.267Z,9.278371
2022-10-17T09:53:05.258Z,9.278346
2022-10-17T09:54:05.270Z,9.278324
2022-10-17T09:55:05.215Z,9.278247
2022-10-17T09:56:05.201Z,9.278316
2022-10-17T09:57:05.186Z,9.278295
2022-10-17T09:58:05.178Z,9.278276
2022-10-17T09:59:05.194Z,9.278413
2022-10-17T10:00:05.234Z,9.278231
2022-10-17T10:01:05.208Z,9.278324
2022-10-17T10:02:05.131Z,9.278283
2022-10-17T10:03:05.119Z,9.278270
2022-10-17T10:04:05.076Z,9.278382
2022-10-17T10:05:06.375Z,9.278315
2022-10-17T10:06:06.050Z,9.278239
2022-10-17T10:07:05.076Z,9.278263
2022-10-17T10:08:05.070Z,9.278196
2022-10-17T10:09:04.999Z,9.278285
2022-10-17T10:10:04.983Z,9.278381
2022-10-17T10:11:04.998Z,9.278325
2022-10-17T10:12:05.004Z,9.278260
2022-10-17T10:13:04.982Z,9.278373
2022-10-17T10:14:04.932Z,9.278162
2022-10-17T10:15:04.986Z,9.278397
2022-10-17T10:16:04.894Z,9.278321
2022-10-17T10:17:04.987Z,9.278336
2022-10-17T10:18:04.882Z,9.278408
2022-10-17T10:19:07.057Z,9.278408
2022-10-17T10:20:04.832Z,9.278395
2022-10-17T10:21:04.817Z,9.278338
2022-10-17T10:22:04.807Z,9.278282
2022-10-17T10:23:04.798Z,9.278168
2022-10-17T10:24:04.809Z,9.278297
2022-10-17T10:25:04.756Z,9.278370
2022-10-17T10:26:05.785Z,9.278172
2022-10-17T10:27:04.712Z,9.278193
2022-10-17T10:28:04.731Z,9.278320
2022-10-17T10:29:04.739Z,9.278223
2022-10-17T10:30:04.668Z,9.278208
2022-10-17T10:31:04.666Z,9.278277
2022-10-17T10:32:04.641Z,9.278477
2022-10-17T10:33:04.651Z,9.278337
2022-10-17T10:34:04.629Z,9.278451
2022-10-17T10:35:04.651Z,9.278395
2022-10-17T10:36:04.591Z,9.278480
2022-10-17T10:37:04.678Z,9.278419
2022-10-17T10:38:04.560Z,9.278361
2022-10-17T10:39:04.714Z,9.278378
2022-10-17T10:40:04.635Z,9.278393
2022-10-17T10:41:04.789Z,9.278344
2022-10-17T10:42:04.759Z,9.278374
2022-10-17T10:43:05.726Z,9.278434
2022-10-17T10:44:05.449Z,9.278476
2022-10-17T10:45:04.424Z,9.278421
2022-10-17T10:46:04.443Z,9.278276
2022-10-17T10:47:04.406Z,9.278434
2022-10-17T10:48:04.396Z,9.278308
2022-10-17T10:49:04.403Z,9.278439
2022-10-17T10:50:04.358Z,9.278357
2022-10-17T10:51:04.354Z,9.278427
2022-10-17T10:52:04.321Z,9.278461
2022-10-17T10:53:04.334Z,9.278444
2022-10-17T10:54:04.396Z,9.278471
2022-10-17T10:55:04.295Z,9.278424
2022-10-17T10:56:04.297Z,9.278356
2022-10-17T10:57:04.261Z,9.278376
2022-10-17T10:58:04.263Z,9.278364
2022-10-17T10:59:04.269Z,9.278295
2022-10-17T11:00:04.241Z,9.278320
2022-10-17T11:01:04.274Z,9.278376
2022-10-17T11:02:04.184Z,9.278333
2022-10-17T11:03:04.302Z,9.278286
2022-10-17T11:04:04.344Z,9.278311
2022-10-17T11:05:04.134Z,9.278306
2022-10-17T11:06:04.188Z,9.278378
2022-10-17T11:07:04.124Z,9.278336
2022-10-17T11:08:04.148Z,9.278371
2022-10-17T11:09:04.100Z,9.278230
2022-10-17T11:10:04.051Z,9.278319
2022-10-17T11:11:04.046Z,9.278433
2022-10-17T11:12:04.022Z,9.278295
2022-10-17T11:13:04.013Z,9.278397
2022-10-17T11:14:04.017Z,9.278458
2022-10-17T11:15:03.979Z,9.278309
2022-10-17T11:16:03.982Z,9.278278
2022-10-17T11:17:03.942Z,9.278185
2022-10-17T11:18:03.940Z,9.278242
2022-10-17T11:19:03.955Z,9.278179
2022-10-17T11:20:03.905Z,9.278158
2022-10-17T11:21:03.886Z,9.278284
2022-10-17T11:22:03.863Z,9.278273
2022-10-17T11:23:03.884Z,9.278292
2022-10-17T11:24:06.883Z,9.278371
2022-10-17T11:25:04.826Z,9.278262
2022-10-17T11:26:03.878Z,9.278340
2022-10-17T11:27:03.801Z,9.278331
2022-10-17T11:28:05.198Z,9.278368
2022-10-17T11:29:04.823Z,9.278318
2022-10-17T11:30:03.797Z,9.278319
2022-10-17T11:31:06.978Z,9.278357
2022-10-17T11:32:03.716Z,9.278388
2022-10-17T11:33:03.749Z,9.278350
2022-10-17T11:34:03.700Z,9.278255
2022-10-17T11:35:03.664Z,9.278325
2022-10-17T11:36:03.663Z,9.278316
2022-10-17T11:37:03.628Z,9.278275
2022-10-17T11:38:03.675Z,9.278224
2022-10-17T11:39:03.599Z,9.278156
2022-10-17T11:40:03.583Z,9.278206
2022-10-17T11:41:03.564Z,9.278251
2022-10-17T11:42:04.261Z,9.278252
2022-10-17T11:43:03.555Z,9.278241
2022-10-17T11:44:03.513Z,9.278351
2022-10-17T11:45:03.525Z,9.278399
2022-10-17T11:46:03.473Z,9.278299
2022-10-17T11:47:03.564Z,9.278230
2022-10-17T11:48:03.621Z,9.278219
2022-10-17T11:49:03.495Z,9.278287